createdAt,value
2023-05-25T00:00:29.093Z,100997.94
2023-05-25T00:05:31.164Z,101003.22
2023-05-25T00:10:32.841Z,101002.59
2023-05-25T00:15:34.513Z,100999.06
2023-05-25T00:20:36.360Z,101005.03
2023-05-25T00:25:38.164Z,101005.41
2023-05-25T00:30:40.020Z,101012.00
2023-05-25T00:35:45.388Z,101001.13
2023-05-25T00:40:55.294Z,100998.66
2023-05-25T00:45:57.466Z,101002.09
2023-05-25T00:51:00.118Z,100987.19
2023-05-25T00:56:15.941Z,100991.44
2023-05-25T01:01:18.542Z,100998.25
2023-05-25T01:06:27.008Z,101001.91
2023-05-25T01:11:32.703Z,100994.94
2023-05-25T01:16:36.086Z,101012.28
2023-05-25T01:21:44.100Z,101005.53
2023-05-25T01:26:49.179Z,101015.69
2023-05-25T01:31:54.423Z,101011.88
2023-05-25T01:36:56.690Z,101013.56
2023-05-25T01:41:58.513Z,101025.28
2023-05-25T01:47:08.143Z,101026.56
2023-05-25T01:52:19.755Z,101019.91
2023-05-25T01:57:22.778Z,101011.97
2023-05-25T02:02:25.232Z,101018.22
2023-05-25T02:07:26.977Z,101016.72
2023-05-25T02:12:29.581Z,101022.31
2023-05-25T02:17:31.484Z,101019.13
2023-05-25T02:22:34.047Z,101033.41
2023-05-25T02:27:36.767Z,101035.88
2023-05-25T02:32:38.585Z,101042.72
2023-05-25T02:37:40.631Z,101043.81
2023-05-25T02:42:43.032Z,101041.75
2023-05-25T02:47:44.837Z,101039.41
2023-05-25T02:52:47.895Z,101035.47
2023-05-25T02:57:49.876Z,101045.19
2023-05-25T03:03:08.277Z,101039.19
2023-05-25T03:08:10.085Z,101042.19
2023-05-25T03:13:12.212Z,101051.34
2023-05-25T03:18:13.995Z,101066.69
2023-05-25T03:23:16.473Z,101058.31
2023-05-25T03:28:18.201Z,101068.59
2023-05-25T03:33:20.075Z,101066.53
2023-05-25T03:38:24.098Z,101064.25
2023-05-25T03:43:25.849Z,101085.28
2023-05-25T03:48:29.660Z,101093.34
2023-05-25T03:53:31.426Z,101090.53
2023-05-25T03:58:33.289Z,101093.53
2023-05-25T04:03:35.653Z,101100.06
2023-05-25T04:08:37.791Z,101101.72
2023-05-25T04:13:40.434Z,101102.13
2023-05-25T04:18:43.892Z,101114.28
2023-05-25T04:23:45.655Z,101107.94
2023-05-25T04:28:48.262Z,101109.59
2023-05-25T04:34:10.355Z,101106.50
2023-05-25T04:39:17.158Z,101109.31
2023-05-25T04:44:25.780Z,101105.88
2023-05-25T04:49:28.594Z,101100.81
2023-05-25T04:54:30.451Z,101112.47
2023-05-25T04:59:35.372Z,101104.94
2023-05-25T05:04:40.042Z,101096.53
2023-05-25T05:09:42.405Z,101098.47
2023-05-25T05:14:44.638Z,101093.00
2023-05-25T05:19:46.484Z,101099.72
2023-05-25T05:24:48.721Z,101091.81
2023-05-25T05:29:57.183Z,101093.50
2023-05-25T05:35:00.477Z,101089.47
2023-05-25T05:40:20.197Z,101093.34
2023-05-25T05:45:22.015Z,101090.50
2023-05-25T05:50:23.729Z,101093.94
2023-05-25T05:55:26.843Z,101098.66
2023-05-25T06:00:28.915Z,101101.66
2023-05-25T06:05:30.811Z,101100.44
2023-05-25T06:10:33.658Z,101095.84
2023-05-25T06:15:35.996Z,101104.06
2023-05-25T06:20:46.341Z,101107.66
2023-05-25T06:25:48.063Z,101092.06
2023-05-25T06:30:49.986Z,101090.56
2023-05-25T06:35:52.697Z,101089.63
2023-05-25T06:40:54.483Z,101098.53
2023-05-25T06:45:56.243Z,101108.84
2023-05-25T06:50:58.042Z,101099.66
2023-05-25T06:55:59.714Z,101108.72
2023-05-25T07:01:01.921Z,101109.91
2023-05-25T07:06:04.353Z,101111.75
2023-05-25T07:11:06.577Z,101110.25
2023-05-25T07:16:08.329Z,101113.13
2023-05-25T07:21:10.191Z,101118.91
2023-05-25T07:26:11.996Z,101101.00
2023-05-25T07:31:13.729Z,101104.09
2023-05-25T07:36:15.460Z,101103.25
2023-05-25T07:41:17.221Z,101089.97
2023-05-25T07:46:22.286Z,101090.25
2023-05-25T07:51:26.409Z,101088.19
2023-05-25T07:56:28.762Z,101104.41
2023-05-25T08:01:30.729Z,101105.44
2023-05-25T08:06:32.641Z,101117.94
2023-05-25T08:11:34.308Z,101111.03
2023-05-25T08:16:36.861Z,101116.50
2023-05-25T08:21:40.352Z,101103.81
2023-05-25T08:26:53.868Z,101103.59
2023-05-25T08:31:56.898Z,101108.75
2023-05-25T08:36:58.624Z,101113.13
2023-05-25T08:42:00.800Z,101113.28
2023-05-25T08:47:07.710Z,101113.31
2023-05-25T08:52:14.179Z,101102.47
2023-05-25T08:57:21.242Z,101114.81
2023-05-25T09:02:43.040Z,101114.84
2023-05-25T09:07:44.930Z,101116.00
2023-05-25T09:12:46.848Z,101112.50
2023-05-25T09:17:48.547Z,101122.66
2023-05-25T09:22:51.142Z,101115.31
2023-05-25T09:27:52.930Z,101123.28
2023-05-25T09:32:54.666Z,101121.72
2023-05-25T09:37:56.429Z,101125.91
2023-05-25T09:42:59.090Z,101123.06
2023-05-25T09:48:01.303Z,101119.66
2023-05-25T09:53:03.087Z,101116.16
2023-05-25T09:58:05.003Z,101135.81
2023-05-25T10:03:08.475Z,101137.19
2023-05-25T10:08:10.869Z,101136.53
2023-05-25T10:13:14.164Z,101131.91
2023-05-25T10:18:18.384Z,101125.28
2023-05-25T10:23:20.638Z,101116.78
2023-05-25T10:28:29.181Z,101125.09
2023-05-25T10:38:40.103Z,101123.59
2023-05-25T10:43:43.014Z,101123.28
2023-05-25T10:48:48.840Z,101121.91
2023-05-25T10:54:00.219Z,101113.22
2023-05-25T10:59:02.141Z,101114.91
2023-05-25T11:04:10.193Z,101104.66
2023-05-25T11:09:26.068Z,101094.72
2023-05-25T11:14:27.912Z,101104.47
2023-05-25T11:19:39.458Z,101095.59
2023-05-25T11:24:43.285Z,101077.50
2023-05-25T11:29:45.097Z,101083.50
2023-05-25T11:34:53.969Z,101085.75
2023-05-25T11:39:56.000Z,101083.44
2023-05-25T11:45:02.619Z,101077.97
2023-05-25T11:50:04.694Z,101081.47
2023-05-25T11:55:14.375Z,101067.94
2023-05-25T12:00:24.728Z,101068.94
2023-05-25T12:05:26.412Z,101061.84
2023-05-25T12:10:28.154Z,101063.47
2023-05-25T12:15:30.424Z,101055.50
2023-05-25T12:20:32.561Z,101054.06
2023-05-25T12:25:49.212Z,101045.63
2023-05-25T12:30:52.334Z,101045.81
2023-05-25T12:35:55.800Z,101037.09
2023-05-25T12:41:07.432Z,101040.25
2023-05-25T12:46:09.065Z,101021.03
2023-05-25T12:51:12.069Z,101025.47
2023-05-25T12:56:13.831Z,101034.19
2023-05-25T13:01:15.518Z,101026.88
2023-05-25T13:06:17.864Z,101012.22
2023-05-25T13:11:20.906Z,101017.97
2023-05-25T13:16:23.192Z,101024.81
2023-05-25T13:21:24.855Z,101027.28
2023-05-25T13:26:27.327Z,101012.88
2023-05-25T13:31:29.070Z,101015.34
2023-05-25T13:36:32.883Z,101007.78
2023-05-25T13:41:34.567Z,101015.50
2023-05-25T13:46:37.765Z,101002.31
2023-05-25T13:51:39.693Z,100991.88
2023-05-25T13:56:42.451Z,100990.72
2023-05-25T14:01:44.459Z,101002.38
2023-05-25T14:06:49.985Z,100978.25
2023-05-25T14:11:53.652Z,100981.34
2023-05-25T14:16:55.443Z,100974.81
2023-05-25T14:22:11.911Z,100975.34
2023-05-25T14:27:16.185Z,100968.75
2023-05-25T14:32:19.189Z,100970.66
2023-05-25T14:37:20.911Z,100968.03
2023-05-25T14:42:22.598Z,100967.19
2023-05-25T14:47:24.287Z,100973.16
2023-05-25T14:52:25.992Z,100969.97
2023-05-25T14:57:27.701Z,100963.97
2023-05-25T15:02:29.754Z,100964.97
2023-05-25T15:07:31.589Z,100969.47
2023-05-25T15:12:33.328Z,100964.63
2023-05-25T15:17:35.531Z,100966.72
2023-05-25T15:22:37.237Z,100968.41
2023-05-25T15:27:38.994Z,100974.84
2023-05-25T15:32:40.699Z,100962.34
2023-05-25T15:37:43.098Z,100968.63
2023-05-25T15:42:44.785Z,100961.50
2023-05-25T15:47:46.480Z,100958.13
2023-05-25T15:52:48.436Z,100958.22
2023-05-25T15:57:50.098Z,100946.16
2023-05-25T16:02:51.778Z,100937.97
2023-05-25T16:07:53.494Z,100929.16
2023-05-25T16:12:55.396Z,100927.50
2023-05-25T16:17:57.063Z,100920.13
2023-05-25T16:22:58.737Z,100917.53
2023-05-25T16:28:00.506Z,100932.28
2023-05-25T16:33:02.398Z,100926.16
2023-05-25T16:38:04.399Z,100928.03
2023-05-25T16:43:06.033Z,100924.66
2023-05-25T16:48:07.813Z,100933.25
2023-05-25T16:53:09.579Z,100919.66
2023-05-25T16:58:11.310Z,100916.69
2023-05-25T17:03:13.064Z,100913.28
2023-05-25T17:08:15.937Z,100923.31
2023-05-25T17:13:17.690Z,100922.22
2023-05-25T17:18:19.530Z,100925.34
2023-05-25T17:23:22.395Z,100927.41
2023-05-25T17:28:24.084Z,100927.34
2023-05-25T17:33:26.158Z,100925.56
2023-05-25T17:38:27.903Z,100924.66
2023-05-25T17:43:29.659Z,100930.88
2023-05-25T17:48:31.318Z,100923.13
2023-05-25T17:53:33.038Z,100926.34
2023-05-25T17:58:34.699Z,100934.00
2023-05-25T18:03:36.550Z,100929.66
2023-05-25T18:08:38.368Z,100941.53
2023-05-25T18:13:40.729Z,100937.66
2023-05-25T18:18:42.420Z,100932.19
2023-05-25T18:23:44.149Z,100952.44
2023-05-25T18:28:45.878Z,100949.66
2023-05-25T18:33:47.614Z,100960.31
2023-05-25T18:38:49.309Z,100951.53
2023-05-25T18:43:51.424Z,100955.59
2023-05-25T18:48:53.113Z,100954.88
2023-05-25T18:53:55.097Z,100957.31
2023-05-25T18:58:57.213Z,100966.47
2023-05-25T19:03:59.177Z,100974.25
2023-05-25T19:09:01.105Z,100978.50
2023-05-25T19:14:02.774Z,100986.38
2023-05-25T19:19:04.489Z,100991.72
2023-05-25T19:24:06.531Z,100996.00
2023-05-25T19:29:08.219Z,101006.03
2023-05-25T19:34:09.977Z,101022.22
2023-05-25T19:39:11.682Z,101022.06
2023-05-25T19:44:14.758Z,101015.44
2023-05-25T19:49:17.388Z,101024.72
2023-05-25T19:54:19.219Z,101031.34
2023-05-25T19:59:21.748Z,101035.56
2023-05-25T20:04:23.418Z,101037.09
2023-05-25T20:09:30.241Z,101041.00
2023-05-25T20:14:33.702Z,101042.66
2023-05-25T20:19:35.412Z,101047.72
2023-05-25T20:24:37.213Z,101056.38
2023-05-25T20:29:38.898Z,101060.44
2023-05-25T20:34:40.557Z,101059.03
2023-05-25T20:39:42.217Z,101059.31
2023-05-25T20:44:44.216Z,101065.25
2023-05-25T20:49:45.901Z,101059.94
2023-05-25T20:54:48.222Z,101065.47
2023-05-25T20:59:51.642Z,101062.53
2023-05-25T21:04:53.343Z,101071.28
2023-05-25T21:09:56.654Z,101084.97
2023-05-25T21:14:58.290Z,101097.88
2023-05-25T21:19:59.943Z,101096.00
2023-05-25T21:25:01.725Z,101100.06
2023-05-25T21:30:04.956Z,101094.25
2023-05-25T21:35:07.509Z,101103.50
2023-05-25T21:40:09.660Z,101099.13
2023-05-25T21:45:11.666Z,101111.47
2023-05-25T21:50:13.485Z,101111.31
2023-05-25T21:55:15.182Z,101114.50
2023-05-25T22:00:17.152Z,101116.06
2023-05-25T22:05:18.828Z,101125.03
2023-05-25T22:10:20.543Z,101120.56
2023-05-25T22:15:25.848Z,101126.06
2023-05-25T22:20:28.045Z,101125.13
2023-05-25T22:25:29.785Z,101123.50
2023-05-25T22:30:31.432Z,101123.66
2023-05-25T22:35:33.182Z,101133.03
2023-05-25T22:40:34.942Z,101132.22
2023-05-25T22:45:36.828Z,101142.25
2023-05-25T22:50:38.486Z,101145.97
2023-05-25T22:55:40.201Z,101146.31
2023-05-25T23:00:41.974Z,101148.34
2023-05-25T23:05:43.915Z,101148.53
2023-05-25T23:10:45.847Z,101144.84
2023-05-25T23:15:48.366Z,101146.28
2023-05-25T23:20:50.527Z,101147.13
2023-05-25T23:25:53.917Z,101147.00
2023-05-25T23:30:56.325Z,101148.44
2023-05-25T23:35:59.145Z,101149.16
2023-05-25T23:41:00.864Z,101154.28
2023-05-25T23:46:03.062Z,101142.03
2023-05-25T23:51:07.467Z,101146.75
2023-05-25T23:56:09.158Z,101146.47
